createdAt,value
2019-03-15T00:01:57.045Z,55.20
2019-03-15T00:04:24.445Z,55.20
2019-03-15T00:06:51.869Z,55.10
2019-03-15T00:09:19.252Z,55.00
2019-03-15T00:11:46.675Z,54.80
2019-03-15T00:14:14.106Z,54.80
2019-03-15T00:16:41.493Z,54.90
2019-03-15T00:19:08.863Z,54.70
2019-03-15T00:21:36.286Z,55.00
2019-03-15T00:24:03.695Z,54.70
2019-03-15T00:26:31.097Z,54.70
2019-03-15T00:28:58.639Z,54.70
2019-03-15T00:31:26.110Z,54.70
2019-03-15T00:33:53.506Z,54.80
2019-03-15T00:36:21.080Z,54.70
2019-03-15T00:38:48.654Z,54.80
2019-03-15T00:41:16.067Z,54.70
2019-03-15T00:43:43.520Z,54.80
2019-03-15T00:46:11.060Z,54.70
2019-03-15T00:48:38.467Z,54.80
2019-03-15T00:51:05.899Z,54.80
2019-03-15T00:53:33.402Z,55.00
2019-03-15T00:56:00.809Z,54.90
2019-03-15T00:58:28.223Z,54.90
2019-03-15T01:00:55.644Z,54.90
2019-03-15T01:03:23.040Z,55.00
2019-03-15T01:05:50.581Z,55.00
2019-03-15T01:08:17.983Z,55.00
2019-03-15T01:10:45.436Z,55.00
2019-03-15T01:13:12.988Z,55.00
2019-03-15T01:15:41.571Z,55.00
2019-03-15T01:18:09.079Z,55.00
2019-03-15T01:20:36.577Z,55.10
2019-03-15T01:23:03.971Z,55.00
2019-03-15T01:25:31.370Z,55.00
2019-03-15T01:28:01.801Z,55.10
2019-03-15T01:30:29.168Z,55.00
2019-03-15T01:32:56.617Z,55.00
2019-03-15T01:35:24.228Z,55.00
2019-03-15T01:37:51.657Z,55.00
2019-03-15T01:40:19.037Z,55.10
2019-03-15T01:42:46.568Z,55.00
2019-03-15T01:45:14.008Z,55.10
2019-03-15T01:47:41.402Z,55.10
2019-03-15T01:50:08.829Z,55.10
2019-03-15T01:52:36.211Z,55.30
2019-03-15T01:55:03.595Z,55.20
2019-03-15T01:57:31.072Z,55.20
2019-03-15T01:59:58.471Z,55.10
2019-03-15T02:02:25.878Z,55.70
2019-03-15T02:04:53.300Z,55.20
2019-03-15T02:07:20.681Z,55.00
2019-03-15T02:09:48.055Z,55.10
2019-03-15T02:12:15.487Z,55.00
2019-03-15T02:14:42.899Z,55.00
2019-03-15T02:17:10.300Z,55.00
2019-03-15T02:19:37.722Z,54.90
2019-03-15T02:22:05.106Z,54.80
2019-03-15T02:24:32.501Z,54.80
2019-03-15T02:26:59.917Z,54.90
2019-03-15T02:29:27.305Z,54.80
2019-03-15T02:31:57.729Z,54.80
2019-03-15T02:34:25.420Z,54.80
2019-03-15T02:36:52.930Z,54.80
2019-03-15T02:39:20.473Z,54.80
2019-03-15T02:41:47.922Z,54.80
2019-03-15T02:44:15.411Z,54.70
2019-03-15T02:46:42.877Z,55.00
2019-03-15T02:49:10.286Z,54.60
2019-03-15T02:51:37.960Z,54.60
2019-03-15T02:54:05.365Z,54.70
2019-03-15T02:56:32.902Z,54.70
2019-03-15T02:59:00.353Z,54.70
2019-03-15T03:01:27.768Z,54.80
2019-03-15T03:03:55.321Z,54.90
2019-03-15T03:06:22.782Z,55.00
2019-03-15T03:08:50.174Z,55.00
2019-03-15T03:11:17.616Z,55.00
2019-03-15T03:13:45.371Z,55.10
2019-03-15T03:16:12.814Z,55.00
2019-03-15T03:18:40.330Z,55.00
2019-03-15T03:21:07.771Z,55.00
2019-03-15T03:23:35.393Z,55.00
2019-03-15T03:26:02.806Z,55.10
2019-03-15T03:28:30.212Z,55.10
2019-03-15T03:30:57.674Z,54.90
2019-03-15T03:33:25.197Z,54.90
2019-03-15T03:35:52.661Z,54.90
2019-03-15T03:38:20.045Z,54.90
2019-03-15T03:40:47.466Z,54.80
2019-03-15T03:43:14.857Z,54.80
2019-03-15T03:45:42.256Z,54.80
2019-03-15T03:48:09.707Z,54.80
2019-03-15T03:50:37.117Z,54.80
2019-03-15T03:53:04.520Z,54.80
2019-03-15T03:55:31.928Z,54.90
2019-03-15T03:57:59.397Z,54.90
2019-03-15T04:00:26.783Z,54.90
2019-03-15T04:02:54.211Z,54.90
2019-03-15T04:05:22.049Z,54.90
2019-03-15T04:07:49.432Z,54.90
2019-03-15T04:10:16.837Z,54.90
2019-03-15T04:12:44.237Z,54.90
2019-03-15T04:15:11.649Z,55.00
2019-03-15T04:17:39.078Z,55.10
2019-03-15T04:20:06.476Z,55.10
2019-03-15T04:22:33.939Z,55.10
2019-03-15T04:25:01.444Z,55.10
2019-03-15T04:27:28.861Z,55.10
2019-03-15T04:29:58.980Z,55.10
2019-03-15T04:32:26.557Z,55.10
2019-03-15T04:34:54.084Z,55.20
2019-03-15T04:37:22.838Z,55.30
2019-03-15T04:39:50.476Z,55.30
2019-03-15T04:42:17.868Z,55.30
2019-03-15T04:44:45.283Z,55.50
2019-03-15T04:47:12.748Z,55.50
2019-03-15T04:49:40.140Z,55.50
2019-03-15T04:52:07.524Z,55.70
2019-03-15T04:54:34.975Z,55.60
2019-03-15T04:57:02.358Z,56.10
2019-03-15T04:59:29.753Z,55.60
2019-03-15T05:01:57.193Z,55.70
2019-03-15T05:04:24.587Z,55.70
2019-03-15T05:06:51.969Z,55.80
2019-03-15T05:09:19.408Z,55.70
2019-03-15T05:11:46.854Z,55.80
2019-03-15T05:14:14.263Z,55.80
2019-03-15T05:16:41.688Z,55.90
2019-03-15T05:19:09.072Z,55.90
2019-03-15T05:21:36.508Z,55.80
2019-03-15T05:24:03.965Z,55.80
2019-03-15T05:26:31.407Z,55.90
2019-03-15T05:28:58.794Z,55.90
2019-03-15T05:31:26.263Z,55.90
2019-03-15T05:33:53.669Z,55.90
2019-03-15T05:36:21.059Z,56.00
2019-03-15T05:38:48.443Z,56.10
2019-03-15T05:41:16.158Z,56.10
2019-03-15T05:43:43.554Z,56.10
2019-03-15T05:46:11.014Z,56.00
2019-03-15T05:48:38.531Z,56.10
2019-03-15T05:51:06.043Z,56.40
2019-03-15T05:53:33.501Z,56.30
2019-03-15T05:56:00.927Z,56.30
2019-03-15T05:58:28.311Z,56.40
2019-03-15T06:00:55.742Z,56.50
2019-03-15T06:03:23.274Z,56.60
2019-03-15T06:05:50.711Z,56.70
2019-03-15T06:08:18.135Z,56.70
2019-03-15T06:10:45.539Z,56.70
2019-03-15T06:13:12.967Z,56.60
2019-03-15T06:15:40.371Z,56.80
2019-03-15T06:18:07.905Z,56.80
2019-03-15T06:20:35.397Z,56.50
2019-03-15T06:23:02.809Z,56.90
2019-03-15T06:25:30.237Z,57.30
2019-03-15T06:27:57.636Z,57.50
2019-03-15T06:30:25.041Z,57.20
2019-03-15T06:32:52.645Z,57.20
2019-03-15T06:35:20.067Z,57.20
2019-03-15T06:37:47.554Z,57.40
2019-03-15T06:40:14.978Z,57.20
2019-03-15T06:42:42.465Z,57.20
2019-03-15T06:45:10.795Z,57.30
2019-03-15T06:47:38.226Z,57.30
2019-03-15T06:50:05.637Z,57.30
2019-03-15T06:52:33.032Z,57.20
2019-03-15T06:55:00.471Z,57.30
2019-03-15T06:57:27.924Z,57.30
2019-03-15T06:59:55.346Z,57.30
2019-03-15T07:02:22.862Z,57.40
2019-03-15T07:04:50.310Z,57.40
2019-03-15T07:07:17.797Z,57.60
2019-03-15T07:09:45.211Z,57.70
2019-03-15T07:12:12.628Z,58.20
2019-03-15T07:14:40.040Z,59.40
2019-03-15T07:17:07.474Z,59.60
2019-03-15T07:19:34.861Z,59.70
2019-03-15T07:22:02.283Z,59.50
2019-03-15T07:24:29.690Z,61.60
2019-03-15T07:26:57.093Z,62.00
2019-03-15T07:29:24.534Z,61.70
2019-03-15T07:31:52.072Z,61.40
2019-03-15T07:34:19.472Z,61.30
2019-03-15T07:36:46.902Z,61.20
2019-03-15T07:39:14.300Z,61.10
2019-03-15T07:41:41.689Z,61.20
2019-03-15T07:44:09.142Z,61.10
2019-03-15T07:46:36.630Z,61.00
2019-03-15T07:49:04.012Z,61.00
2019-03-15T07:51:31.502Z,60.90
2019-03-15T07:53:58.920Z,60.90
2019-03-15T07:56:28.676Z,60.90
2019-03-15T07:58:55.564Z,60.90
2019-03-15T08:01:23.026Z,60.90
2019-03-15T08:03:50.424Z,60.90
2019-03-15T08:06:17.833Z,60.90
2019-03-15T08:08:45.303Z,60.90
2019-03-15T08:11:12.750Z,60.90
2019-03-15T08:13:40.261Z,60.90
2019-03-15T08:16:07.782Z,60.90
2019-03-15T08:18:35.168Z,60.80
2019-03-15T08:21:02.575Z,61.00
2019-03-15T08:23:29.961Z,60.90
2019-03-15T08:25:57.347Z,60.90
2019-03-15T08:28:24.809Z,60.90
2019-03-15T08:30:52.303Z,61.20
2019-03-15T08:33:19.707Z,61.60
2019-03-15T08:35:47.256Z,61.60
2019-03-15T08:38:14.667Z,61.70
2019-03-15T08:40:42.068Z,62.20
2019-03-15T08:43:09.471Z,61.60
2019-03-15T08:45:36.927Z,61.70
2019-03-15T08:48:04.323Z,61.60
2019-03-15T08:50:31.789Z,61.60
2019-03-15T08:52:59.303Z,61.70
2019-03-15T08:55:26.779Z,62.40
2019-03-15T08:57:54.189Z,61.70
2019-03-15T09:00:21.667Z,61.70
2019-03-15T09:02:49.128Z,61.80
2019-03-15T09:05:16.698Z,61.80
2019-03-15T09:07:44.302Z,61.80
2019-03-15T09:10:21.735Z,61.80
2019-03-15T09:12:40.865Z,61.80
2019-03-15T09:15:08.294Z,61.70
2019-03-15T09:17:35.762Z,61.70
2019-03-15T09:20:03.165Z,61.80
2019-03-15T09:22:30.688Z,61.70
2019-03-15T09:24:58.111Z,61.70
2019-03-15T09:27:25.511Z,61.70
2019-03-15T09:29:52.915Z,61.70
2019-03-15T09:32:20.360Z,61.70
2019-03-15T09:34:47.815Z,61.70
2019-03-15T09:37:15.219Z,61.80
2019-03-15T09:39:42.700Z,61.70
2019-03-15T09:42:10.181Z,61.80
2019-03-15T09:44:37.771Z,61.80
2019-03-15T09:47:05.243Z,61.70
2019-03-15T09:49:32.792Z,61.60
2019-03-15T09:52:00.196Z,61.70
2019-03-15T09:54:27.659Z,61.70
2019-03-15T09:56:55.106Z,61.70
2019-03-15T09:59:22.492Z,61.70
2019-03-15T10:01:49.910Z,61.80
2019-03-15T10:04:20.292Z,61.80
2019-03-15T10:06:50.530Z,61.70
2019-03-15T10:09:17.944Z,61.80
2019-03-15T10:11:45.330Z,61.80
2019-03-15T10:14:12.804Z,61.80
2019-03-15T10:16:40.250Z,61.70
2019-03-15T10:19:07.689Z,61.80
2019-03-15T10:21:35.124Z,61.70
2019-03-15T10:24:02.561Z,61.70
2019-03-15T10:26:30.044Z,61.80
2019-03-15T10:28:57.445Z,61.80
2019-03-15T10:31:26.687Z,61.80
2019-03-15T10:33:54.401Z,61.70
2019-03-15T10:36:21.847Z,61.80
2019-03-15T10:38:49.255Z,61.80
2019-03-15T10:41:16.657Z,61.80
2019-03-15T10:43:44.232Z,61.90
2019-03-15T10:46:11.649Z,61.90
2019-03-15T10:48:39.053Z,61.90
2019-03-15T10:51:06.487Z,61.90
2019-03-15T10:53:33.894Z,62.70
2019-03-15T10:56:01.395Z,61.90
2019-03-15T10:58:29.020Z,61.90
2019-03-15T11:00:56.423Z,61.80
2019-03-15T11:03:23.798Z,61.80
2019-03-15T11:05:51.219Z,61.90
2019-03-15T11:08:18.635Z,61.90
2019-03-15T11:10:46.007Z,61.80
2019-03-15T11:13:13.434Z,61.90
2019-03-15T11:15:40.905Z,61.80
2019-03-15T11:18:08.395Z,61.90
2019-03-15T11:20:35.917Z,61.70
2019-03-15T11:23:03.396Z,61.80
2019-03-15T11:25:31.080Z,61.80
2019-03-15T11:27:58.587Z,61.80
2019-03-15T11:30:26.002Z,61.80
2019-03-15T11:32:53.395Z,61.80
2019-03-15T11:35:21.506Z,61.80
2019-03-15T11:37:49.353Z,61.70
2019-03-15T11:40:19.049Z,61.80
2019-03-15T11:42:45.929Z,61.70
2019-03-15T11:45:13.360Z,61.80
2019-03-15T11:48:01.416Z,61.80
2019-03-15T11:50:10.799Z,61.70
2019-03-15T11:52:38.287Z,61.60
2019-03-15T11:55:05.765Z,61.70
2019-03-15T11:57:33.404Z,61.70
2019-03-15T12:00:00.833Z,61.80
2019-03-15T12:02:28.336Z,61.70
2019-03-15T12:04:55.725Z,61.80
2019-03-15T12:07:23.152Z,61.70
2019-03-15T12:09:50.651Z,61.70
2019-03-15T12:12:21.521Z,61.70
2019-03-15T12:14:47.617Z,61.50
2019-03-15T12:17:15.066Z,61.70
2019-03-15T12:19:42.564Z,61.30
2019-03-15T12:22:09.974Z,61.40
2019-03-15T12:24:37.478Z,61.50
2019-03-15T12:27:04.883Z,61.60
2019-03-15T12:29:32.347Z,61.30
2019-03-15T12:31:59.804Z,61.30
2019-03-15T12:34:27.278Z,61.30
2019-03-15T12:36:54.680Z,61.50
2019-03-15T12:39:22.198Z,61.10
2019-03-15T12:41:49.687Z,61.40
2019-03-15T12:44:17.111Z,61.50
2019-03-15T12:46:44.542Z,61.40
2019-03-15T12:49:12.042Z,61.60
2019-03-15T12:51:39.548Z,61.40
2019-03-15T12:54:06.994Z,61.40
2019-03-15T12:56:34.470Z,61.40
2019-03-15T12:59:01.923Z,61.30
2019-03-15T13:01:29.373Z,61.30
2019-03-15T13:03:56.765Z,61.30
2019-03-15T13:06:24.171Z,61.30
2019-03-15T13:08:51.912Z,61.30
2019-03-15T13:11:19.346Z,61.40
2019-03-15T13:13:46.813Z,61.50
2019-03-15T13:16:14.248Z,61.30
2019-03-15T13:18:41.649Z,62.00
2019-03-15T13:21:09.075Z,61.30
2019-03-15T13:23:36.594Z,61.30
2019-03-15T13:26:03.981Z,61.20
2019-03-15T13:28:31.393Z,61.20
2019-03-15T13:30:58.805Z,61.20
2019-03-15T13:33:26.284Z,61.20
2019-03-15T13:35:53.730Z,61.20
2019-03-15T13:38:21.211Z,61.20
2019-03-15T13:40:48.626Z,61.30
2019-03-15T13:43:16.040Z,61.40
2019-03-15T13:45:43.546Z,62.50
2019-03-15T13:48:11.133Z,62.80
2019-03-15T13:50:38.550Z,63.30
2019-03-15T13:53:06.069Z,63.00
2019-03-15T13:55:33.459Z,62.80
2019-03-15T13:58:00.857Z,63.00
2019-03-15T14:00:28.348Z,63.10
2019-03-15T14:02:55.830Z,63.20
2019-03-15T14:05:23.216Z,63.50
2019-03-15T14:07:50.606Z,63.60
2019-03-15T14:10:18.025Z,63.60
2019-03-15T14:12:45.418Z,63.60
2019-03-15T14:15:13.031Z,63.50
2019-03-15T14:17:40.432Z,63.50
2019-03-15T14:20:07.813Z,63.60
2019-03-15T14:22:35.200Z,63.50
2019-03-15T14:25:02.587Z,63.60
2019-03-15T14:27:37.322Z,63.10
2019-03-15T14:29:59.124Z,63.60
2019-03-15T14:32:26.510Z,63.00
2019-03-15T14:34:53.913Z,62.00
2019-03-15T14:37:21.486Z,63.00
2019-03-15T14:39:49.170Z,82.10
2019-03-15T14:42:16.675Z,81.70
2019-03-15T14:44:44.107Z,81.80
2019-03-15T14:47:11.626Z,63.10
2019-03-15T14:49:39.031Z,69.70
2019-03-15T14:52:06.479Z,75.30
2019-03-15T14:54:33.976Z,65.30
2019-03-15T14:57:01.382Z,65.70
2019-03-15T14:59:28.864Z,71.00
2019-03-15T15:01:56.351Z,67.90
2019-03-15T15:04:23.943Z,67.30
2019-03-15T15:06:51.448Z,70.50
2019-03-15T15:09:18.967Z,66.10
2019-03-15T15:11:46.355Z,65.90
2019-03-15T15:14:13.759Z,65.90
2019-03-15T15:16:41.203Z,65.90
2019-03-15T15:19:08.629Z,66.00
2019-03-15T15:21:36.049Z,65.80
2019-03-15T15:24:03.746Z,65.90
2019-03-15T15:26:31.148Z,65.60
2019-03-15T15:28:58.578Z,65.60
2019-03-15T15:31:26.144Z,65.70
2019-03-15T15:33:53.700Z,65.90
2019-03-15T15:36:23.289Z,70.00
2019-03-15T15:38:50.824Z,71.70
2019-03-15T15:41:18.243Z,72.10
2019-03-15T15:43:45.678Z,74.70
2019-03-15T15:46:13.099Z,71.00
2019-03-15T15:48:40.512Z,68.20
2019-03-15T15:51:08.027Z,68.10
2019-03-15T15:53:35.455Z,75.30
2019-03-15T15:56:02.905Z,85.50
2019-03-15T15:58:30.348Z,85.20
2019-03-15T16:00:57.813Z,85.20
2019-03-15T16:03:25.220Z,85.00
2019-03-15T16:05:52.628Z,84.80
2019-03-15T16:08:20.059Z,84.40
2019-03-15T16:10:50.571Z,84.40
2019-03-15T16:13:18.035Z,84.30
2019-03-15T16:15:45.467Z,84.40
2019-03-15T16:18:12.869Z,84.50
2019-03-15T16:20:43.003Z,84.50
2019-03-15T16:23:10.542Z,84.40
2019-03-15T16:25:38.019Z,84.60
2019-03-15T16:28:06.607Z,84.30
2019-03-15T16:30:34.083Z,84.00
2019-03-15T16:33:06.059Z,83.90
2019-03-15T16:35:30.946Z,83.90
2019-03-15T16:37:58.478Z,84.10
2019-03-15T16:40:25.895Z,84.10
2019-03-15T16:42:53.668Z,84.10
2019-03-15T16:45:21.119Z,84.20
2019-03-15T16:47:48.596Z,84.20
2019-03-15T16:50:15.996Z,84.00
2019-03-15T16:52:43.509Z,84.30
2019-03-15T16:55:11.000Z,84.60
2019-03-15T16:57:38.452Z,84.40
2019-03-15T17:00:06.012Z,84.50
2019-03-15T17:02:33.473Z,84.70
2019-03-15T17:05:00.889Z,84.50
2019-03-15T17:07:28.331Z,84.40
2019-03-15T17:09:55.722Z,84.60
2019-03-15T17:12:23.133Z,84.40
2019-03-15T17:14:50.590Z,84.50
2019-03-15T17:17:18.017Z,84.60
2019-03-15T17:19:45.503Z,84.70
2019-03-15T17:22:12.939Z,87.10
2019-03-15T17:24:40.656Z,90.10
2019-03-15T17:27:08.148Z,91.20
2019-03-15T17:29:35.921Z,91.60
2019-03-15T17:32:03.358Z,91.80
2019-03-15T17:34:30.739Z,91.90
2019-03-15T17:37:06.641Z,92.20
2019-03-15T17:39:27.789Z,92.30
2019-03-15T17:41:55.252Z,92.40
2019-03-15T17:44:22.734Z,91.40
2019-03-15T17:46:50.115Z,91.40
2019-03-15T17:49:17.571Z,90.50
2019-03-15T17:51:44.973Z,90.50
2019-03-15T17:54:12.376Z,90.00
2019-03-15T17:56:39.833Z,90.00
2019-03-15T17:59:12.326Z,90.10
2019-03-15T18:01:36.503Z,90.00
2019-03-15T18:04:04.008Z,90.00
2019-03-15T18:06:31.855Z,89.00
2019-03-15T18:08:59.285Z,88.50
2019-03-15T18:11:26.750Z,88.30
2019-03-15T18:13:54.312Z,87.80
2019-03-15T18:16:21.812Z,89.70
2019-03-15T18:18:49.273Z,89.40
2019-03-15T18:21:16.946Z,89.00
2019-03-15T18:23:44.423Z,89.60
2019-03-15T18:26:11.969Z,90.60
2019-03-15T18:28:39.378Z,91.00
2019-03-15T18:31:06.758Z,91.10
2019-03-15T18:33:34.196Z,91.70
2019-03-15T18:36:01.588Z,92.30
2019-03-15T18:38:29.013Z,92.20
2019-03-15T18:40:56.432Z,92.40
2019-03-15T18:43:23.839Z,94.70
2019-03-15T18:45:51.244Z,94.40
2019-03-15T18:48:18.837Z,94.10
2019-03-15T18:50:46.272Z,94.30
2019-03-15T18:53:13.672Z,94.50
2019-03-15T18:55:41.156Z,94.40
2019-03-15T18:58:08.580Z,94.30
2019-03-15T19:00:36.007Z,94.20
2019-03-15T19:03:03.437Z,94.30
2019-03-15T19:05:30.944Z,94.50
2019-03-15T19:10:26.264Z,93.90
2019-03-15T19:12:53.714Z,94.00
2019-03-15T19:15:21.147Z,93.70
2019-03-15T19:17:48.592Z,94.20
2019-03-15T19:20:16.075Z,93.90
2019-03-15T19:22:43.475Z,94.20
2019-03-15T19:25:11.064Z,94.40
2019-03-15T19:27:38.494Z,94.20
2019-03-15T19:30:05.973Z,94.50
2019-03-15T19:37:29.714Z,93.70
2019-03-15T19:39:57.399Z,93.60
2019-03-15T19:42:24.905Z,93.50
2019-03-15T19:44:52.387Z,93.30
2019-03-15T19:47:19.990Z,93.20
2019-03-15T20:04:39.081Z,92.90
2019-03-15T20:07:06.527Z,93.10
2019-03-15T20:09:33.999Z,93.00
2019-03-15T20:12:01.475Z,93.10
2019-03-15T20:14:28.865Z,93.10
2019-03-15T20:16:56.435Z,92.90
2019-03-15T20:19:23.855Z,92.70
2019-03-15T20:21:51.339Z,92.20
2019-03-15T20:24:18.827Z,92.20
2019-03-15T20:26:46.370Z,91.90
2019-03-15T20:29:13.787Z,91.70
2019-03-15T20:31:41.240Z,92.00
2019-03-15T20:34:08.643Z,91.60
2019-03-15T20:36:36.073Z,91.70
2019-03-15T20:39:04.065Z,92.00
2019-03-15T20:41:31.632Z,91.80
2019-03-15T20:44:00.588Z,91.50
2019-03-15T20:46:35.568Z,91.70
2019-03-15T20:48:57.464Z,91.30
2019-03-15T20:51:25.054Z,91.30
2019-03-15T20:53:52.493Z,91.30
2019-03-15T20:56:19.913Z,91.40
2019-03-15T20:58:47.364Z,91.30
2019-03-15T21:01:14.851Z,91.90
2019-03-15T21:03:55.174Z,92.00
2019-03-15T21:06:11.720Z,92.20
2019-03-15T21:08:39.158Z,92.60
2019-03-15T21:11:06.560Z,92.80
2019-03-15T21:13:34.201Z,92.80
2019-03-15T21:16:01.811Z,92.60
2019-03-15T21:18:29.227Z,92.80
2019-03-15T21:23:44.699Z,92.70
2019-03-15T21:26:12.188Z,93.10
2019-03-15T21:28:42.904Z,92.90
2019-03-15T21:31:10.565Z,92.70
2019-03-15T21:33:37.982Z,92.60
2019-03-15T21:36:05.398Z,92.90
2019-03-15T21:38:32.879Z,92.30
2019-03-15T21:41:00.677Z,92.20
2019-03-15T21:43:28.149Z,92.40
2019-03-15T21:45:55.572Z,92.40
2019-03-15T21:48:23.025Z,92.00
2019-03-15T21:50:50.423Z,91.90
2019-03-15T21:53:17.882Z,91.70
2019-03-15T21:55:45.381Z,91.40
2019-03-15T21:58:12.786Z,91.90
2019-03-15T22:00:40.646Z,91.90
2019-03-15T22:03:08.132Z,91.50
2019-03-15T22:05:35.781Z,91.60
2019-03-15T22:08:03.216Z,91.60
2019-03-15T22:10:30.850Z,92.00
2019-03-15T22:12:58.342Z,92.20
2019-03-15T22:15:25.819Z,91.90
2019-03-15T22:17:53.417Z,92.00
2019-03-15T22:20:21.038Z,91.90
2019-03-15T22:22:48.448Z,91.70
2019-03-15T22:25:15.947Z,91.80
2019-03-15T22:27:43.438Z,91.40
2019-03-15T22:30:10.967Z,92.10
2019-03-15T22:32:38.412Z,91.50
2019-03-15T22:35:05.941Z,91.80
2019-03-15T22:37:33.701Z,91.90
2019-03-15T22:40:01.667Z,91.50
2019-03-15T22:42:29.179Z,91.60
2019-03-15T22:44:58.981Z,91.50
2019-03-15T22:47:26.418Z,93.30
2019-03-15T22:49:53.808Z,93.90
2019-03-15T22:52:21.297Z,93.10
2019-03-15T22:54:48.826Z,94.00
2019-03-15T22:57:16.298Z,93.60
2019-03-15T22:59:43.679Z,93.30
2019-03-15T23:02:11.155Z,93.40
2019-03-15T23:04:38.536Z,93.40
2019-03-15T23:07:05.965Z,93.60
2019-03-15T23:09:33.387Z,93.30
2019-03-15T23:12:00.827Z,93.40
2019-03-15T23:14:28.239Z,93.40
2019-03-15T23:16:55.668Z,93.50
2019-03-15T23:19:23.209Z,93.50
2019-03-15T23:21:50.652Z,93.50
2019-03-15T23:24:18.162Z,93.40
2019-03-15T23:26:45.613Z,93.70
2019-03-15T23:29:13.174Z,93.70
2019-03-15T23:31:43.762Z,93.70
2019-03-15T23:34:09.824Z,93.40
2019-03-15T23:36:37.218Z,93.50
2019-03-15T23:39:04.564Z,93.50
2019-03-15T23:41:32.073Z,93.50
2019-03-15T23:43:59.492Z,93.80
2019-03-15T23:46:26.980Z,93.40
2019-03-15T23:48:54.454Z,93.20
2019-03-15T23:51:21.913Z,93.30
2019-03-15T23:53:49.320Z,93.40
2019-03-15T23:56:16.744Z,93.10
2019-03-15T23:58:44.251Z,93.60
